sensor_id;sensor_type;location;lat;lon;timestamp;temperature;humidity
15364;DHT22;7781;49.690;6.472;2023-03-23T00:00:39;11.60;99.90
15364;DHT22;7781;49.690;6.472;2023-03-23T00:03:07;11.50;99.90
15364;DHT22;7781;49.690;6.472;2023-03-23T00:05:38;11.40;99.90
15364;DHT22;7781;49.690;6.472;2023-03-23T00:08:07;11.40;99.90
15364;DHT22;7781;49.690;6.472;2023-03-23T00:10:38;11.50;99.90
15364;DHT22;7781;49.690;6.472;2023-03-23T00:13:07;11.50;99.90
15364;DHT22;7781;49.690;6.472;2023-03-23T00:15:36;11.50;99.90
15364;DHT22;7781;49.690;6.472;2023-03-23T00:18:07;11.60;99.90
15364;DHT22;7781;49.690;6.472;2023-03-23T00:20:47;11.60;99.90
15364;DHT22;7781;49.690;6.472;2023-03-23T00:23:15;11.70;99.90
15364;DHT22;7781;49.690;6.472;2023-03-23T00:25:46;11.60;99.90
15364;DHT22;7781;49.690;6.472;2023-03-23T00:28:17;11.70;99.90
15364;DHT22;7781;49.690;6.472;2023-03-23T00:30:55;11.70;99.90
15364;DHT22;7781;49.690;6.472;2023-03-23T00:33:24;11.80;99.90
15364;DHT22;7781;49.690;6.472;2023-03-23T00:35:55;11.90;99.90
15364;DHT22;7781;49.690;6.472;2023-03-23T00:38:23;12.00;99.90
15364;DHT22;7781;49.690;6.472;2023-03-23T00:40:53;12.00;99.90
15364;DHT22;7781;49.690;6.472;2023-03-23T00:43:24;12.00;99.90
15364;DHT22;7781;49.690;6.472;2023-03-23T00:45:55;12.10;99.90
15364;DHT22;7781;49.690;6.472;2023-03-23T00:48:28;12.10;99.90
15364;DHT22;7781;49.690;6.472;2023-03-23T00:50:58;12.10;99.90
15364;DHT22;7781;49.690;6.472;2023-03-23T00:53:28;12.10;99.90
15364;DHT22;7781;49.690;6.472;2023-03-23T00:55:56;12.20;99.90
15364;DHT22;7781;49.690;6.472;2023-03-23T00:58:27;12.10;99.90
15364;DHT22;7781;49.690;6.472;2023-03-23T01:00:54;12.10;99.90
15364;DHT22;7781;49.690;6.472;2023-03-23T01:03:23;12.10;99.90
15364;DHT22;7781;49.690;6.472;2023-03-23T01:05:52;12.00;99.90
15364;DHT22;7781;49.690;6.472;2023-03-23T01:08:21;12.00;99.90
15364;DHT22;7781;49.690;6.472;2023-03-23T01:10:49;12.00;99.90
15364;DHT22;7781;49.690;6.472;2023-03-23T01:13:20;12.00;99.90
15364;DHT22;7781;49.690;6.472;2023-03-23T01:15:51;11.90;99.90
15364;DHT22;7781;49.690;6.472;2023-03-23T01:18:20;11.80;99.90
15364;DHT22;7781;49.690;6.472;2023-03-23T01:20:48;11.70;99.90
15364;DHT22;7781;49.690;6.472;2023-03-23T01:23:17;11.70;99.90
15364;DHT22;7781;49.690;6.472;2023-03-23T01:25:48;11.70;99.90
15364;DHT22;7781;49.690;6.472;2023-03-23T01:28:15;11.70;99.90
15364;DHT22;7781;49.690;6.472;2023-03-23T01:30:44;11.60;99.90
15364;DHT22;7781;49.690;6.472;2023-03-23T01:33:14;11.60;99.90
15364;DHT22;7781;49.690;6.472;2023-03-23T01:35:43;11.50;99.90
15364;DHT22;7781;49.690;6.472;2023-03-23T01:38:11;11.40;99.90
15364;DHT22;7781;49.690;6.472;2023-03-23T01:40:39;11.40;99.90
15364;DHT22;7781;49.690;6.472;2023-03-23T01:43:10;11.30;99.90
15364;DHT22;7781;49.690;6.472;2023-03-23T01:45:43;11.30;99.90
15364;DHT22;7781;49.690;6.472;2023-03-23T01:48:17;11.30;99.90
15364;DHT22;7781;49.690;6.472;2023-03-23T01:50:55;11.30;99.90
15364;DHT22;7781;49.690;6.472;2023-03-23T01:53:26;11.20;99.90
15364;DHT22;7781;49.690;6.472;2023-03-23T01:55:57;11.20;99.90
15364;DHT22;7781;49.690;6.472;2023-03-23T01:58:27;11.10;99.90
15364;DHT22;7781;49.690;6.472;2023-03-23T02:00:58;11.10;99.90
15364;DHT22;7781;49.690;6.472;2023-03-23T02:03:31;11.10;99.90
15364;DHT22;7781;49.690;6.472;2023-03-23T02:05:59;11.10;99.90
15364;DHT22;7781;49.690;6.472;2023-03-23T02:08:35;11.10;99.90
15364;DHT22;7781;49.690;6.472;2023-03-23T02:11:12;11.10;99.90
15364;DHT22;7781;49.690;6.472;2023-03-23T02:13:43;11.20;99.90
15364;DHT22;7781;49.690;6.472;2023-03-23T02:16:17;11.10;99.90
15364;DHT22;7781;49.690;6.472;2023-03-23T02:24:56;11.10;99.90
15364;DHT22;7781;49.690;6.472;2023-03-23T02:28:05;11.00;99.90
15364;DHT22;7781;49.690;6.472;2023-03-23T02:33:40;11.00;99.90
15364;DHT22;7781;49.690;6.472;2023-03-23T02:36:18;11.00;99.90
15364;DHT22;7781;49.690;6.472;2023-03-23T02:38:53;10.90;99.90
15364;DHT22;7781;49.690;6.472;2023-03-23T02:41:27;11.00;99.90
15364;DHT22;7781;49.690;6.472;2023-03-23T02:43:56;10.90;99.90
15364;DHT22;7781;49.690;6.472;2023-03-23T02:46:26;10.90;99.90
15364;DHT22;7781;49.690;6.472;2023-03-23T02:48:57;10.90;99.90
15364;DHT22;7781;49.690;6.472;2023-03-23T02:51:27;10.90;99.90
15364;DHT22;7781;49.690;6.472;2023-03-23T02:53:58;10.80;99.90
15364;DHT22;7781;49.690;6.472;2023-03-23T02:56:26;10.90;99.90
15364;DHT22;7781;49.690;6.472;2023-03-23T02:58:56;10.90;99.90
15364;DHT22;7781;49.690;6.472;2023-03-23T03:01:54;10.90;99.90
15364;DHT22;7781;49.690;6.472;2023-03-23T03:04:26;10.90;99.90
15364;DHT22;7781;49.690;6.472;2023-03-23T03:07:04;10.90;99.90
15364;DHT22;7781;49.690;6.472;2023-03-23T03:09:41;10.90;99.90
15364;DHT22;7781;49.690;6.472;2023-03-23T03:12:14;10.90;99.90
15364;DHT22;7781;49.690;6.472;2023-03-23T03:14:51;10.90;99.90
15364;DHT22;7781;49.690;6.472;2023-03-23T03:17:24;10.90;99.90
15364;DHT22;7781;49.690;6.472;2023-03-23T03:20:07;10.90;99.90
15364;DHT22;7781;49.690;6.472;2023-03-23T03:22:39;10.80;99.90
15364;DHT22;7781;49.690;6.472;2023-03-23T03:25:10;10.80;99.90
15364;DHT22;7781;49.690;6.472;2023-03-23T03:27:41;10.80;99.90
15364;DHT22;7781;49.690;6.472;2023-03-23T03:30:19;10.70;99.90
15364;DHT22;7781;49.690;6.472;2023-03-23T03:32:52;10.80;99.90
15364;DHT22;7781;49.690;6.472;2023-03-23T03:35:23;10.80;99.90
15364;DHT22;7781;49.690;6.472;2023-03-23T03:37:53;10.80;99.90
15364;DHT22;7781;49.690;6.472;2023-03-23T03:40:21;10.80;99.90
15364;DHT22;7781;49.690;6.472;2023-03-23T03:42:50;10.80;99.90
15364;DHT22;7781;49.690;6.472;2023-03-23T03:45:19;10.80;99.90
15364;DHT22;7781;49.690;6.472;2023-03-23T03:47:47;10.80;99.90
15364;DHT22;7781;49.690;6.472;2023-03-23T03:50:19;10.70;99.90
15364;DHT22;7781;49.690;6.472;2023-03-23T03:52:49;10.80;99.90
15364;DHT22;7781;49.690;6.472;2023-03-23T03:55:17;10.70;99.90
15364;DHT22;7781;49.690;6.472;2023-03-23T03:57:47;10.70;99.90
15364;DHT22;7781;49.690;6.472;2023-03-23T04:00:37;10.80;99.90
15364;DHT22;7781;49.690;6.472;2023-03-23T04:03:06;10.80;99.90
15364;DHT22;7781;49.690;6.472;2023-03-23T04:05:55;10.70;99.90
15364;DHT22;7781;49.690;6.472;2023-03-23T04:08:24;10.70;99.90
15364;DHT22;7781;49.690;6.472;2023-03-23T04:10:53;10.80;99.90
15364;DHT22;7781;49.690;6.472;2023-03-23T04:13:24;10.80;99.90
15364;DHT22;7781;49.690;6.472;2023-03-23T04:16:18;10.80;99.90
15364;DHT22;7781;49.690;6.472;2023-03-23T04:18:48;10.80;99.90
15364;DHT22;7781;49.690;6.472;2023-03-23T04:21:18;10.80;99.90
15364;DHT22;7781;49.690;6.472;2023-03-23T04:23:50;10.80;99.90
15364;DHT22;7781;49.690;6.472;2023-03-23T04:26:21;10.70;99.90
15364;DHT22;7781;49.690;6.472;2023-03-23T04:28:52;10.70;99.90
15364;DHT22;7781;49.690;6.472;2023-03-23T04:31:35;10.70;99.90
15364;DHT22;7781;49.690;6.472;2023-03-23T04:34:14;10.70;99.90
15364;DHT22;7781;49.690;6.472;2023-03-23T04:36:46;10.70;99.90
15364;DHT22;7781;49.690;6.472;2023-03-23T04:39:21;10.80;99.90
15364;DHT22;7781;49.690;6.472;2023-03-23T04:41:51;10.80;99.90
15364;DHT22;7781;49.690;6.472;2023-03-23T04:44:36;10.80;99.90
15364;DHT22;7781;49.690;6.472;2023-03-23T04:47:11;10.80;99.90
15364;DHT22;7781;49.690;6.472;2023-03-23T04:49:46;10.80;99.90
15364;DHT22;7781;49.690;6.472;2023-03-23T04:52:25;10.70;99.90
15364;DHT22;7781;49.690;6.472;2023-03-23T04:54:58;10.70;99.90
15364;DHT22;7781;49.690;6.472;2023-03-23T04:57:27;10.70;99.90
15364;DHT22;7781;49.690;6.472;2023-03-23T05:00:18;10.70;99.90
15364;DHT22;7781;49.690;6.472;2023-03-23T05:02:53;10.70;99.90
15364;DHT22;7781;49.690;6.472;2023-03-23T05:05:30;10.70;99.90
15364;DHT22;7781;49.690;6.472;2023-03-23T05:08:04;10.70;99.90
15364;DHT22;7781;49.690;6.472;2023-03-23T05:10:38;10.70;99.90
15364;DHT22;7781;49.690;6.472;2023-03-23T05:13:10;10.70;99.90
15364;DHT22;7781;49.690;6.472;2023-03-23T05:15:37;10.70;99.90
15364;DHT22;7781;49.690;6.472;2023-03-23T05:18:07;10.70;99.90
15364;DHT22;7781;49.690;6.472;2023-03-23T05:20:37;10.70;99.90
15364;DHT22;7781;49.690;6.472;2023-03-23T05:23:14;10.70;99.90
15364;DHT22;7781;49.690;6.472;2023-03-23T05:25:53;10.70;99.90
15364;DHT22;7781;49.690;6.472;2023-03-23T05:28:21;10.70;99.90
15364;DHT22;7781;49.690;6.472;2023-03-23T05:30:58;10.80;99.90
15364;DHT22;7781;49.690;6.472;2023-03-23T05:33:30;10.80;99.90
15364;DHT22;7781;49.690;6.472;2023-03-23T05:36:05;10.80;99.90
15364;DHT22;7781;49.690;6.472;2023-03-23T05:38:51;10.80;99.90
15364;DHT22;7781;49.690;6.472;2023-03-23T05:41:22;10.80;99.90
15364;DHT22;7781;49.690;6.472;2023-03-23T05:43:52;10.80;99.90
15364;DHT22;7781;49.690;6.472;2023-03-23T05:46:43;10.80;99.90
15364;DHT22;7781;49.690;6.472;2023-03-23T05:49:11;10.90;99.90
15364;DHT22;7781;49.690;6.472;2023-03-23T05:51:42;10.90;99.90
15364;DHT22;7781;49.690;6.472;2023-03-23T05:54:13;10.90;99.90
15364;DHT22;7781;49.690;6.472;2023-03-23T05:56:45;10.90;99.90
15364;DHT22;7781;49.690;6.472;2023-03-23T05:59:34;10.90;99.90
15364;DHT22;7781;49.690;6.472;2023-03-23T06:02:02;10.90;99.90
15364;DHT22;7781;49.690;6.472;2023-03-23T06:04:32;11.00;99.90
15364;DHT22;7781;49.690;6.472;2023-03-23T06:07:09;11.00;99.90
15364;DHT22;7781;49.690;6.472;2023-03-23T06:09:42;11.00;99.90
15364;DHT22;7781;49.690;6.472;2023-03-23T06:12:26;11.00;99.90
15364;DHT22;7781;49.690;6.472;2023-03-23T06:15:20;11.00;99.90
15364;DHT22;7781;49.690;6.472;2023-03-23T06:17:59;11.00;99.90
15364;DHT22;7781;49.690;6.472;2023-03-23T06:20:36;11.00;99.90
15364;DHT22;7781;49.690;6.472;2023-03-23T06:23:17;11.00;99.90
15364;DHT22;7781;49.690;6.472;2023-03-23T06:25:46;11.00;99.90
15364;DHT22;7781;49.690;6.472;2023-03-23T06:28:15;11.00;99.90
15364;DHT22;7781;49.690;6.472;2023-03-23T06:30:48;11.10;99.90
15364;DHT22;7781;49.690;6.472;2023-03-23T06:33:16;11.10;99.90
15364;DHT22;7781;49.690;6.472;2023-03-23T06:36:03;11.10;99.90
15364;DHT22;7781;49.690;6.472;2023-03-23T06:38:45;11.10;99.90
15364;DHT22;7781;49.690;6.472;2023-03-23T06:41:15;11.10;99.90
15364;DHT22;7781;49.690;6.472;2023-03-23T06:43:52;11.20;99.90
15364;DHT22;7781;49.690;6.472;2023-03-23T06:46:26;11.20;99.90
15364;DHT22;7781;49.690;6.472;2023-03-23T06:48:56;11.30;99.90
15364;DHT22;7781;49.690;6.472;2023-03-23T06:51:38;11.30;99.90
15364;DHT22;7781;49.690;6.472;2023-03-23T06:54:07;11.30;99.90
15364;DHT22;7781;49.690;6.472;2023-03-23T06:56:39;11.30;99.90
15364;DHT22;7781;49.690;6.472;2023-03-23T06:59:10;11.30;99.90
15364;DHT22;7781;49.690;6.472;2023-03-23T07:01:39;11.30;99.90
15364;DHT22;7781;49.690;6.472;2023-03-23T07:04:08;11.20;99.90
15364;DHT22;7781;49.690;6.472;2023-03-23T07:06:46;11.20;99.90
15364;DHT22;7781;49.690;6.472;2023-03-23T07:09:15;11.20;99.90
15364;DHT22;7781;49.690;6.472;2023-03-23T07:11:42;11.10;99.90
15364;DHT22;7781;49.690;6.472;2023-03-23T07:14:35;11.10;99.90
15364;DHT22;7781;49.690;6.472;2023-03-23T07:17:03;11.10;99.90
15364;DHT22;7781;49.690;6.472;2023-03-23T07:19:34;11.20;99.90
15364;DHT22;7781;49.690;6.472;2023-03-23T07:22:04;11.20;99.90
15364;DHT22;7781;49.690;6.472;2023-03-23T07:24:33;11.20;99.90
15364;DHT22;7781;49.690;6.472;2023-03-23T07:27:11;11.20;99.90
15364;DHT22;7781;49.690;6.472;2023-03-23T07:29:44;11.20;99.90
15364;DHT22;7781;49.690;6.472;2023-03-23T07:32:21;11.20;99.90
15364;DHT22;7781;49.690;6.472;2023-03-23T07:34:49;11.10;99.90
15364;DHT22;7781;49.690;6.472;2023-03-23T07:37:26;11.10;99.90
15364;DHT22;7781;49.690;6.472;2023-03-23T07:39:55;11.00;99.90
15364;DHT22;7781;49.690;6.472;2023-03-23T07:42:23;11.00;99.90
15364;DHT22;7781;49.690;6.472;2023-03-23T07:45:00;11.00;99.90
15364;DHT22;7781;49.690;6.472;2023-03-23T07:47:28;11.00;99.90
15364;DHT22;7781;49.690;6.472;2023-03-23T07:49:56;11.00;99.90
15364;DHT22;7781;49.690;6.472;2023-03-23T07:52:36;11.00;99.90
15364;DHT22;7781;49.690;6.472;2023-03-23T07:55:07;11.10;99.90
15364;DHT22;7781;49.690;6.472;2023-03-23T07:58:02;11.10;99.90
15364;DHT22;7781;49.690;6.472;2023-03-23T08:00:32;11.10;99.90
15364;DHT22;7781;49.690;6.472;2023-03-23T08:03:05;11.10;99.90
15364;DHT22;7781;49.690;6.472;2023-03-23T08:05:38;11.20;99.90
15364;DHT22;7781;49.690;6.472;2023-03-23T08:08:13;11.20;99.90
15364;DHT22;7781;49.690;6.472;2023-03-23T08:10:55;11.20;99.90
15364;DHT22;7781;49.690;6.472;2023-03-23T08:13:49;11.10;99.90
15364;DHT22;7781;49.690;6.472;2023-03-23T08:16:38;11.10;99.90
15364;DHT22;7781;49.690;6.472;2023-03-23T08:19:21;11.10;99.90
15364;DHT22;7781;49.690;6.472;2023-03-23T08:21:49;11.10;99.90
15364;DHT22;7781;49.690;6.472;2023-03-23T08:24:23;11.10;99.90
15364;DHT22;7781;49.690;6.472;2023-03-23T08:27:03;11.10;99.90
15364;DHT22;7781;49.690;6.472;2023-03-23T08:30:06;11.10;99.90
15364;DHT22;7781;49.690;6.472;2023-03-23T08:33:02;11.10;99.90
15364;DHT22;7781;49.690;6.472;2023-03-23T08:35:57;11.20;99.90
15364;DHT22;7781;49.690;6.472;2023-03-23T08:38:33;11.30;99.90
15364;DHT22;7781;49.690;6.472;2023-03-23T08:41:21;11.30;99.90
15364;DHT22;7781;49.690;6.472;2023-03-23T08:43:51;11.20;99.90
15364;DHT22;7781;49.690;6.472;2023-03-23T08:46:38;11.30;99.90
15364;DHT22;7781;49.690;6.472;2023-03-23T08:49:18;11.30;99.90
15364;DHT22;7781;49.690;6.472;2023-03-23T08:52:16;11.30;99.90
15364;DHT22;7781;49.690;6.472;2023-03-23T08:55:05;11.30;99.90
15364;DHT22;7781;49.690;6.472;2023-03-23T08:57:54;11.30;99.90
15364;DHT22;7781;49.690;6.472;2023-03-23T09:00:40;11.30;99.90
15364;DHT22;7781;49.690;6.472;2023-03-23T09:03:17;11.40;99.90
15364;DHT22;7781;49.690;6.472;2023-03-23T09:06:08;11.40;99.90
15364;DHT22;7781;49.690;6.472;2023-03-23T09:08:46;11.40;99.90
15364;DHT22;7781;49.690;6.472;2023-03-23T09:11:15;11.50;99.90
15364;DHT22;7781;49.690;6.472;2023-03-23T09:13:42;11.60;99.90
15364;DHT22;7781;49.690;6.472;2023-03-23T09:16:10;11.50;99.90
15364;DHT22;7781;49.690;6.472;2023-03-23T09:18:38;11.50;99.90
15364;DHT22;7781;49.690;6.472;2023-03-23T09:21:07;11.60;99.90
15364;DHT22;7781;49.690;6.472;2023-03-23T09:23:35;11.60;99.90
15364;DHT22;7781;49.690;6.472;2023-03-23T09:26:03;11.60;99.90
15364;DHT22;7781;49.690;6.472;2023-03-23T09:28:30;11.60;99.90
15364;DHT22;7781;49.690;6.472;2023-03-23T09:30:58;11.70;99.90
15364;DHT22;7781;49.690;6.472;2023-03-23T09:33:26;11.70;99.90
15364;DHT22;7781;49.690;6.472;2023-03-23T09:35:54;11.80;99.90
15364;DHT22;7781;49.690;6.472;2023-03-23T09:38:23;11.90;99.90
15364;DHT22;7781;49.690;6.472;2023-03-23T09:40:55;12.10;99.90
15364;DHT22;7781;49.690;6.472;2023-03-23T09:46:38;12.30;99.90
15364;DHT22;7781;49.690;6.472;2023-03-23T09:49:12;12.40;99.90
15364;DHT22;7781;49.690;6.472;2023-03-23T09:51:46;12.40;99.90
15364;DHT22;7781;49.690;6.472;2023-03-23T09:54:20;12.40;99.90
15364;DHT22;7781;49.690;6.472;2023-03-23T09:56:50;12.30;99.90
15364;DHT22;7781;49.690;6.472;2023-03-23T09:59:23;12.40;99.90
15364;DHT22;7781;49.690;6.472;2023-03-23T10:01:53;12.40;99.90
15364;DHT22;7781;49.690;6.472;2023-03-23T10:04:33;12.40;99.90
15364;DHT22;7781;49.690;6.472;2023-03-23T10:07:10;12.40;99.90
15364;DHT22;7781;49.690;6.472;2023-03-23T10:09:40;12.50;99.90
15364;DHT22;7781;49.690;6.472;2023-03-23T10:12:27;12.40;99.90
15364;DHT22;7781;49.690;6.472;2023-03-23T10:15:04;12.40;99.90
15364;DHT22;7781;49.690;6.472;2023-03-23T10:17:42;12.40;99.90
15364;DHT22;7781;49.690;6.472;2023-03-23T10:23:20;12.40;99.90
15364;DHT22;7781;49.690;6.472;2023-03-23T10:26:02;12.50;99.90
15364;DHT22;7781;49.690;6.472;2023-03-23T10:28:36;12.60;99.90
15364;DHT22;7781;49.690;6.472;2023-03-23T10:31:05;12.70;99.90
15364;DHT22;7781;49.690;6.472;2023-03-23T10:33:39;12.80;99.90
15364;DHT22;7781;49.690;6.472;2023-03-23T10:36:13;12.90;99.90
15364;DHT22;7781;49.690;6.472;2023-03-23T10:38:45;12.90;99.90
15364;DHT22;7781;49.690;6.472;2023-03-23T10:41:17;12.90;99.90
15364;DHT22;7781;49.690;6.472;2023-03-23T10:43:45;13.00;99.90
15364;DHT22;7781;49.690;6.472;2023-03-23T10:46:26;13.10;99.90
15364;DHT22;7781;49.690;6.472;2023-03-23T10:48:54;13.30;99.90
15364;DHT22;7781;49.690;6.472;2023-03-23T10:51:28;13.50;99.90
15364;DHT22;7781;49.690;6.472;2023-03-23T10:53:58;13.50;99.90
15364;DHT22;7781;49.690;6.472;2023-03-23T10:56:37;13.60;99.90
15364;DHT22;7781;49.690;6.472;2023-03-23T10:59:15;13.80;99.90
15364;DHT22;7781;49.690;6.472;2023-03-23T11:01:49;13.70;99.90
15364;DHT22;7781;49.690;6.472;2023-03-23T11:04:18;13.60;99.90
15364;DHT22;7781;49.690;6.472;2023-03-23T11:06:50;13.60;99.90
15364;DHT22;7781;49.690;6.472;2023-03-23T11:09:21;13.60;99.90
15364;DHT22;7781;49.690;6.472;2023-03-23T11:11:52;13.70;99.90
15364;DHT22;7781;49.690;6.472;2023-03-23T11:14:26;13.70;99.90
15364;DHT22;7781;49.690;6.472;2023-03-23T11:16:57;13.80;99.90
15364;DHT22;7781;49.690;6.472;2023-03-23T11:19:28;13.70;99.90
15364;DHT22;7781;49.690;6.472;2023-03-23T11:22:07;13.80;99.90
15364;DHT22;7781;49.690;6.472;2023-03-23T11:24:37;13.80;99.90
15364;DHT22;7781;49.690;6.472;2023-03-23T11:27:11;13.90;99.90
15364;DHT22;7781;49.690;6.472;2023-03-23T11:29:49;14.10;99.90
15364;DHT22;7781;49.690;6.472;2023-03-23T11:32:23;14.10;99.90
15364;DHT22;7781;49.690;6.472;2023-03-23T11:34:55;14.10;99.90
15364;DHT22;7781;49.690;6.472;2023-03-23T11:37:29;14.20;99.90
15364;DHT22;7781;49.690;6.472;2023-03-23T11:39:59;14.20;99.90
15364;DHT22;7781;49.690;6.472;2023-03-23T11:42:37;14.20;99.90
15364;DHT22;7781;49.690;6.472;2023-03-23T11:45:17;14.20;99.90
15364;DHT22;7781;49.690;6.472;2023-03-23T11:47:56;14.30;99.90
15364;DHT22;7781;49.690;6.472;2023-03-23T11:50:31;14.30;99.90
15364;DHT22;7781;49.690;6.472;2023-03-23T11:53:02;14.30;99.90
15364;DHT22;7781;49.690;6.472;2023-03-23T11:55:52;14.30;99.90
15364;DHT22;7781;49.690;6.472;2023-03-23T11:58:24;14.40;99.90
15364;DHT22;7781;49.690;6.472;2023-03-23T12:01:05;14.20;99.90
15364;DHT22;7781;49.690;6.472;2023-03-23T12:03:47;13.90;99.90
15364;DHT22;7781;49.690;6.472;2023-03-23T12:06:22;13.80;99.90
15364;DHT22;7781;49.690;6.472;2023-03-23T12:09:01;13.80;99.90
15364;DHT22;7781;49.690;6.472;2023-03-23T12:11:37;13.70;99.90
15364;DHT22;7781;49.690;6.472;2023-03-23T12:14:15;13.70;99.90
15364;DHT22;7781;49.690;6.472;2023-03-23T12:16:54;13.40;99.90
15364;DHT22;7781;49.690;6.472;2023-03-23T12:19:30;13.40;99.90
15364;DHT22;7781;49.690;6.472;2023-03-23T12:22:11;13.30;99.90
15364;DHT22;7781;49.690;6.472;2023-03-23T12:24:50;13.30;99.90
15364;DHT22;7781;49.690;6.472;2023-03-23T12:27:26;13.40;99.90
15364;DHT22;7781;49.690;6.472;2023-03-23T12:30:05;13.50;99.90
15364;DHT22;7781;49.690;6.472;2023-03-23T12:35:36;13.30;99.90
15364;DHT22;7781;49.690;6.472;2023-03-23T12:38:20;13.30;99.90
15364;DHT22;7781;49.690;6.472;2023-03-23T12:41:00;13.20;99.90
15364;DHT22;7781;49.690;6.472;2023-03-23T12:43:45;13.20;99.90
15364;DHT22;7781;49.690;6.472;2023-03-23T12:46:29;13.20;99.90
15364;DHT22;7781;49.690;6.472;2023-03-23T12:49:04;13.20;99.90
15364;DHT22;7781;49.690;6.472;2023-03-23T12:51:38;13.20;99.90
15364;DHT22;7781;49.690;6.472;2023-03-23T12:54:11;13.20;99.90
15364;DHT22;7781;49.690;6.472;2023-03-23T12:56:44;13.30;99.90
15364;DHT22;7781;49.690;6.472;2023-03-23T12:59:20;13.50;99.90
15364;DHT22;7781;49.690;6.472;2023-03-23T13:01:53;13.80;99.90
15364;DHT22;7781;49.690;6.472;2023-03-23T13:04:27;13.80;99.90
15364;DHT22;7781;49.690;6.472;2023-03-23T13:06:59;13.80;99.90
15364;DHT22;7781;49.690;6.472;2023-03-23T13:09:35;13.90;99.90
15364;DHT22;7781;49.690;6.472;2023-03-23T13:12:05;14.10;99.90
15364;DHT22;7781;49.690;6.472;2023-03-23T13:14:43;14.00;99.90
15364;DHT22;7781;49.690;6.472;2023-03-23T13:17:26;14.10;99.90
15364;DHT22;7781;49.690;6.472;2023-03-23T13:20:13;14.40;99.90
15364;DHT22;7781;49.690;6.472;2023-03-23T13:22:51;14.30;99.90
15364;DHT22;7781;49.690;6.472;2023-03-23T13:25:28;14.20;99.90
15364;DHT22;7781;49.690;6.472;2023-03-23T13:27:59;14.40;99.90
15364;DHT22;7781;49.690;6.472;2023-03-23T13:30:29;14.80;99.90
15364;DHT22;7781;49.690;6.472;2023-03-23T13:33:04;15.20;92.70
15364;DHT22;7781;49.690;6.472;2023-03-23T13:35:36;15.70;80.40
15364;DHT22;7781;49.690;6.472;2023-03-23T13:38:15;15.60;51.20
15364;DHT22;7781;49.690;6.472;2023-03-23T13:40:45;15.60;51.50
15364;DHT22;7781;49.690;6.472;2023-03-23T13:43:26;15.30;59.30
15364;DHT22;7781;49.690;6.472;2023-03-23T13:45:54;14.80;74.20
15364;DHT22;7781;49.690;6.472;2023-03-23T13:48:25;14.70;81.20
15364;DHT22;7781;49.690;6.472;2023-03-23T13:50:55;14.80;94.00
15364;DHT22;7781;49.690;6.472;2023-03-23T13:53:26;14.60;99.90
15364;DHT22;7781;49.690;6.472;2023-03-23T13:56:07;14.50;99.90
15364;DHT22;7781;49.690;6.472;2023-03-23T13:58:47;14.30;99.90
15364;DHT22;7781;49.690;6.472;2023-03-23T14:01:17;14.00;99.90
15364;DHT22;7781;49.690;6.472;2023-03-23T14:04:00;13.90;99.90
15364;DHT22;7781;49.690;6.472;2023-03-23T14:06:34;13.90;99.90
15364;DHT22;7781;49.690;6.472;2023-03-23T14:09:09;14.20;99.90
15364;DHT22;7781;49.690;6.472;2023-03-23T14:11:47;14.30;99.90
15364;DHT22;7781;49.690;6.472;2023-03-23T14:14:23;14.30;99.90
15364;DHT22;7781;49.690;6.472;2023-03-23T14:16:51;14.20;99.90
15364;DHT22;7781;49.690;6.472;2023-03-23T14:19:25;14.10;99.90
15364;DHT22;7781;49.690;6.472;2023-03-23T14:21:56;14.20;99.90
15364;DHT22;7781;49.690;6.472;2023-03-23T14:24:26;14.10;99.90
15364;DHT22;7781;49.690;6.472;2023-03-23T14:27:08;14.10;99.90
15364;DHT22;7781;49.690;6.472;2023-03-23T14:29:36;14.10;99.90
15364;DHT22;7781;49.690;6.472;2023-03-23T14:32:07;14.10;99.90
15364;DHT22;7781;49.690;6.472;2023-03-23T14:34:40;14.10;99.90
15364;DHT22;7781;49.690;6.472;2023-03-23T14:37:11;14.20;99.90
15364;DHT22;7781;49.690;6.472;2023-03-23T14:39:39;14.30;91.80
15364;DHT22;7781;49.690;6.472;2023-03-23T14:42:13;14.40;93.80
15364;DHT22;7781;49.690;6.472;2023-03-23T14:44:45;14.60;90.60
15364;DHT22;7781;49.690;6.472;2023-03-23T14:47:17;14.70;88.00
15364;DHT22;7781;49.690;6.472;2023-03-23T14:49:52;14.70;85.40
15364;DHT22;7781;49.690;6.472;2023-03-23T14:52:22;14.80;81.40
15364;DHT22;7781;49.690;6.472;2023-03-23T14:54:50;14.80;73.20
15364;DHT22;7781;49.690;6.472;2023-03-23T14:57:25;14.90;73.30
15364;DHT22;7781;49.690;6.472;2023-03-23T14:59:53;14.90;71.90
15364;DHT22;7781;49.690;6.472;2023-03-23T15:02:25;15.00;72.70
15364;DHT22;7781;49.690;6.472;2023-03-23T15:04:56;15.10;69.60
15364;DHT22;7781;49.690;6.472;2023-03-23T15:07:29;14.90;63.00
15364;DHT22;7781;49.690;6.472;2023-03-23T15:09:58;15.00;71.70
15364;DHT22;7781;49.690;6.472;2023-03-23T15:12:29;14.90;81.00
15364;DHT22;7781;49.690;6.472;2023-03-23T15:14:59;14.70;91.90
15364;DHT22;7781;49.690;6.472;2023-03-23T15:17:29;14.60;94.80
15364;DHT22;7781;49.690;6.472;2023-03-23T15:20:08;14.50;96.90
15364;DHT22;7781;49.690;6.472;2023-03-23T15:22:36;14.60;99.90
15364;DHT22;7781;49.690;6.472;2023-03-23T15:25:18;14.50;99.90
15364;DHT22;7781;49.690;6.472;2023-03-23T15:27:51;14.40;96.10
15364;DHT22;7781;49.690;6.472;2023-03-23T15:30:32;14.40;98.20
15364;DHT22;7781;49.690;6.472;2023-03-23T15:33:02;14.50;98.50
15364;DHT22;7781;49.690;6.472;2023-03-23T15:35:35;14.40;92.40
15364;DHT22;7781;49.690;6.472;2023-03-23T15:38:12;14.40;94.10
15364;DHT22;7781;49.690;6.472;2023-03-23T15:40:43;14.40;94.20
15364;DHT22;7781;49.690;6.472;2023-03-23T15:43:16;14.40;92.00
15364;DHT22;7781;49.690;6.472;2023-03-23T15:45:54;14.40;95.10
15364;DHT22;7781;49.690;6.472;2023-03-23T15:48:26;14.40;91.90
15364;DHT22;7781;49.690;6.472;2023-03-23T15:50:56;14.40;91.90
15364;DHT22;7781;49.690;6.472;2023-03-23T15:53:28;14.50;93.90
15364;DHT22;7781;49.690;6.472;2023-03-23T15:55:59;14.40;99.90
15364;DHT22;7781;49.690;6.472;2023-03-23T15:58:28;14.40;99.90
15364;DHT22;7781;49.690;6.472;2023-03-23T16:00:58;14.40;99.90
15364;DHT22;7781;49.690;6.472;2023-03-23T16:03:33;14.40;99.90
15364;DHT22;7781;49.690;6.472;2023-03-23T16:06:08;14.50;99.90
15364;DHT22;7781;49.690;6.472;2023-03-23T16:08:49;14.50;99.90
15364;DHT22;7781;49.690;6.472;2023-03-23T16:11:22;14.60;99.90
15364;DHT22;7781;49.690;6.472;2023-03-23T16:13:51;14.60;99.90
15364;DHT22;7781;49.690;6.472;2023-03-23T16:16:21;14.60;99.90
15364;DHT22;7781;49.690;6.472;2023-03-23T16:18:53;14.60;99.90
15364;DHT22;7781;49.690;6.472;2023-03-23T16:21:24;14.60;99.90
15364;DHT22;7781;49.690;6.472;2023-03-23T16:23:53;14.60;99.90
15364;DHT22;7781;49.690;6.472;2023-03-23T16:26:23;14.40;99.90
15364;DHT22;7781;49.690;6.472;2023-03-23T16:28:54;14.40;99.90
15364;DHT22;7781;49.690;6.472;2023-03-23T16:31:36;14.40;99.90
15364;DHT22;7781;49.690;6.472;2023-03-23T16:34:04;14.30;99.90
15364;DHT22;7781;49.690;6.472;2023-03-23T16:36:34;14.30;99.90
15364;DHT22;7781;49.690;6.472;2023-03-23T16:39:03;14.30;99.90
15364;DHT22;7781;49.690;6.472;2023-03-23T16:41:32;14.30;99.90
15364;DHT22;7781;49.690;6.472;2023-03-23T16:44:01;14.30;99.90
15364;DHT22;7781;49.690;6.472;2023-03-23T16:46:29;14.20;99.90